createdAt,value
2023-04-01T13:57:31.591Z,83.43
2023-04-01T14:00:10.003Z,83.20
2023-04-01T14:02:55.896Z,83.24
2023-04-01T14:05:43.916Z,82.89
2023-04-01T14:08:25.841Z,83.19
2023-04-01T14:11:05.899Z,83.07
2023-04-01T14:13:45.280Z,83.47
2023-04-01T14:16:31.055Z,83.28
2023-04-01T14:19:26.319Z,82.90
2023-04-01T14:22:01.841Z,83.25
2023-04-01T14:24:42.929Z,82.89
2023-04-01T14:27:42.611Z,83.47
2023-04-01T14:30:34.998Z,82.99
2023-04-01T14:33:14.735Z,83.13
2023-04-01T14:35:51.150Z,83.06
2023-04-01T14:38:48.332Z,83.09
2023-04-01T14:41:27.241Z,83.47
2023-04-01T14:44:15.288Z,83.15
2023-04-01T14:47:20.508Z,83.19
2023-04-01T14:49:51.598Z,83.06
2023-04-01T14:52:29.309Z,83.42
2023-04-01T14:54:59.621Z,83.34
2023-04-01T14:57:29.349Z,83.55
2023-04-01T15:00:15.619Z,83.34
2023-04-01T15:03:00.118Z,83.32
2023-04-01T15:05:35.899Z,82.95
2023-04-01T15:08:20.116Z,83.62
2023-04-01T15:11:09.262Z,83.16
2023-04-01T15:14:02.472Z,83.51
2023-04-01T15:16:36.444Z,83.46
2023-04-01T15:19:16.835Z,83.78
2023-04-01T15:22:19.604Z,83.30
2023-04-01T15:24:52.069Z,83.30
2023-04-01T15:27:35.369Z,83.82
2023-04-01T15:30:17.113Z,83.58
2023-04-01T15:32:54.281Z,83.44
2023-04-01T15:35:33.309Z,83.33
2023-04-01T15:38:08.371Z,83.57
2023-04-01T15:40:45.591Z,83.83
2023-04-01T15:43:23.922Z,83.91
2023-04-01T15:46:00.882Z,83.81
2023-04-01T15:48:41.356Z,83.65
2023-04-01T15:51:18.489Z,83.97
2023-04-01T15:53:55.850Z,83.51
2023-04-01T15:56:40.708Z,83.51
2023-04-01T15:59:28.886Z,83.61
2023-04-01T16:02:02.042Z,84.02
2023-04-01T16:04:46.974Z,83.58
2023-04-01T16:07:31.241Z,83.59
2023-04-01T16:10:11.581Z,83.68
2023-04-01T16:12:55.277Z,83.76
2023-04-01T16:15:29.398Z,84.18
2023-04-01T16:18:16.811Z,83.95
2023-04-01T16:20:52.150Z,84.15
2023-04-01T16:23:28.574Z,84.00
2023-04-01T16:26:07.517Z,83.75
2023-04-01T16:28:42.405Z,83.71
2023-04-01T16:31:14.826Z,83.66
2023-04-01T16:33:49.287Z,84.20
2023-04-01T16:36:28.426Z,84.19
2023-04-01T16:39:12.204Z,84.14
2023-04-01T16:41:49.609Z,84.19
2023-04-01T16:44:22.712Z,84.04
2023-04-01T16:46:54.215Z,84.01
2023-04-01T16:49:33.985Z,84.34
2023-04-01T16:52:16.467Z,84.31
2023-04-01T16:54:53.891Z,84.26
2023-04-01T16:57:27.523Z,84.11
2023-04-01T17:00:05.324Z,84.49
2023-04-01T17:02:39.623Z,84.45
2023-04-01T17:05:13.904Z,84.21
2023-04-01T17:07:49.472Z,84.55
2023-04-01T17:10:42.633Z,84.09
2023-04-01T17:13:31.480Z,84.55
2023-04-01T17:16:12.135Z,84.68
2023-04-01T17:18:49.220Z,84.37
2023-04-01T17:21:25.144Z,84.19
2023-04-01T17:23:55.648Z,84.45
2023-04-01T17:26:35.440Z,84.64
2023-04-01T17:29:16.177Z,84.61
2023-04-01T17:32:05.959Z,84.34
2023-04-01T17:34:54.661Z,84.54
2023-04-01T17:37:33.458Z,84.50
2023-04-01T17:40:22.414Z,84.58
2023-04-01T17:42:58.452Z,84.58
2023-04-01T17:45:34.133Z,85.07
2023-04-01T17:48:10.385Z,84.62
2023-04-01T17:50:50.654Z,84.87
2023-04-01T17:53:28.532Z,84.59
2023-04-01T17:56:11.144Z,84.68
2023-04-01T17:58:47.694Z,84.58
2023-04-01T18:01:37.759Z,84.60
2023-04-01T18:04:29.260Z,84.63
2023-04-01T18:07:25.959Z,84.73
2023-04-01T18:10:04.051Z,84.93
2023-04-01T18:12:39.825Z,84.94
2023-04-01T18:15:21.145Z,84.55
2023-04-01T18:18:04.635Z,84.89
2023-04-01T18:20:48.979Z,84.52
2023-04-01T18:23:30.080Z,85.13
2023-04-01T18:26:06.482Z,84.98
2023-04-01T18:28:38.463Z,85.15
2023-04-01T18:31:15.237Z,84.84
2023-04-01T18:33:51.499Z,84.99
2023-04-01T18:36:26.787Z,84.91
2023-04-01T18:38:57.532Z,85.03
2023-04-01T18:41:35.575Z,84.87
2023-04-01T18:44:18.273Z,85.24
2023-04-01T18:46:54.975Z,84.94
2023-04-01T18:49:27.536Z,85.09
2023-04-01T18:51:59.385Z,85.29
2023-04-01T18:54:33.149Z,84.87
2023-04-01T18:57:10.076Z,85.49
2023-04-01T18:59:43.211Z,85.24
2023-04-01T19:02:28.888Z,85.36
2023-04-01T19:05:03.896Z,85.28
2023-04-01T19:07:49.347Z,85.40
2023-04-01T19:10:25.100Z,85.43
2023-04-01T19:13:06.786Z,85.35
2023-04-01T19:15:43.522Z,85.40
2023-04-01T19:18:38.406Z,85.44
2023-04-01T19:21:12.866Z,85.99
2023-04-01T19:24:09.381Z,85.62
2023-04-01T19:26:41.517Z,85.40
2023-04-01T19:29:20.355Z,85.68
2023-04-01T19:31:58.310Z,85.48
2023-04-01T19:34:40.487Z,85.59
2023-04-01T19:37:21.124Z,85.56
2023-04-01T19:40:00.079Z,85.66
2023-04-01T19:42:38.605Z,85.59
2023-04-01T19:45:26.128Z,85.76
2023-04-01T19:48:04.239Z,85.60
2023-04-01T19:50:39.748Z,85.80
2023-04-01T19:53:17.976Z,85.74
2023-04-01T19:55:52.341Z,85.80
2023-04-01T19:58:28.194Z,85.95
2023-04-01T20:01:00.365Z,85.80
2023-04-01T20:03:40.854Z,85.86
2023-04-01T20:06:25.952Z,85.93
2023-04-01T20:09:08.404Z,85.90
2023-04-01T20:11:49.843Z,86.01
2023-04-01T20:14:27.522Z,86.31
2023-04-01T20:17:02.438Z,85.90
2023-04-01T20:19:36.786Z,86.13
2023-04-01T20:22:17.597Z,86.21
2023-04-01T20:24:48.550Z,86.11
2023-04-01T20:27:21.117Z,86.16
2023-04-01T20:30:14.857Z,86.19
2023-04-01T20:32:57.833Z,86.50
2023-04-01T20:35:37.823Z,86.17
2023-04-01T20:38:32.063Z,86.20
2023-04-01T20:41:08.707Z,86.28
2023-04-01T20:43:59.773Z,86.52
2023-04-01T20:46:39.484Z,86.41
2023-04-01T20:49:29.220Z,86.40
2023-04-01T20:52:04.210Z,86.40
2023-04-01T20:54:51.029Z,86.39
2023-04-01T20:57:24.887Z,86.52
2023-04-01T21:00:18.110Z,86.42
2023-04-01T21:03:02.428Z,86.45
2023-04-01T21:05:58.576Z,86.71
2023-04-01T21:08:33.185Z,86.32
2023-04-01T21:11:10.094Z,86.69
2023-04-01T21:13:56.452Z,86.67
2023-04-01T21:16:43.248Z,86.61
2023-04-01T21:19:27.475Z,86.58
2023-04-01T21:22:24.277Z,86.74
2023-04-01T21:25:06.529Z,86.87
2023-04-01T21:27:49.577Z,86.63
2023-04-01T21:30:34.276Z,86.91
2023-04-01T21:33:16.917Z,86.84
2023-04-01T21:35:49.767Z,86.66
2023-04-01T21:38:42.100Z,86.84
2023-04-01T21:41:27.797Z,86.95
2023-04-01T21:44:30.506Z,86.75
2023-04-01T21:47:41.261Z,86.72
2023-04-01T21:50:41.838Z,86.68
2023-04-01T21:53:33.162Z,87.01
2023-04-01T21:56:33.997Z,87.00
2023-04-01T21:59:44.524Z,86.97
2023-04-01T22:06:42.499Z,87.16
2023-04-01T22:09:14.938Z,86.46
2023-04-01T22:11:50.597Z,86.83
2023-04-01T22:14:24.651Z,87.28
2023-04-01T22:16:58.400Z,86.98
2023-04-01T22:19:32.885Z,86.87
2023-04-01T22:22:08.283Z,86.55
2023-04-01T22:24:49.551Z,86.87
2023-04-01T22:27:26.141Z,87.24
2023-04-01T22:30:06.173Z,87.19
2023-04-01T22:32:40.311Z,86.81
2023-04-01T22:35:16.250Z,86.65
2023-04-01T22:37:59.039Z,87.60
2023-04-01T22:40:32.675Z,86.39
2023-04-01T22:43:04.196Z,87.43
2023-04-01T22:45:50.878Z,87.43
2023-04-01T22:48:22.741Z,86.88
2023-04-01T22:50:58.702Z,87.31
2023-04-01T22:53:46.933Z,87.34
2023-04-01T22:56:20.466Z,87.30
2023-04-01T22:58:54.196Z,86.63
2023-04-01T23:01:27.527Z,87.07
2023-04-01T23:03:57.616Z,87.02
2023-04-01T23:06:29.716Z,86.96
2023-04-01T23:09:11.056Z,87.48
2023-04-01T23:11:43.838Z,87.30
2023-04-01T23:14:33.489Z,87.48
2023-04-01T23:17:14.620Z,87.26
2023-04-01T23:19:50.199Z,87.48
2023-04-01T23:22:26.984Z,87.73
2023-04-01T23:25:03.399Z,87.04
2023-04-01T23:27:38.122Z,86.92
2023-04-01T23:30:28.811Z,87.60
2023-04-01T23:32:56.691Z,86.83
2023-04-01T23:35:24.475Z,87.68
2023-04-01T23:37:52.351Z,86.83
2023-04-01T23:40:22.460Z,87.72
2023-04-01T23:42:50.286Z,87.41
2023-04-01T23:45:21.533Z,87.31
2023-04-01T23:47:51.524Z,87.24
2023-04-01T23:50:22.917Z,86.87
2023-04-01T23:52:56.597Z,87.45
2023-04-01T23:55:29.343Z,87.40
2023-04-01T23:58:16.125Z,87.29
